Time;durP1;ratioP1;P1;durP2;ratioP2;P2;SDS_P1;SDS_P2;PMS_P1;PMS_P2;Temp;Humidity;BMP_temperature;BMP_pressure;BME280_temperature;BME280_humidity;BME280_pressure;Samples;Min_cycle;Max_cycle;Signal;HPM_P1;HPM_P2
2022/06/12 00:02:04;;;;;;;5.50;4.10;;;;;;;-128.00;-1.00;-1.00;100139;1299;1003952;-25
2022/06/12 00:04:33;;;;;;;4.50;3.90;;;;;;;-128.00;-1.00;-1.00;100147;1299;1003293;-27
2022/06/12 00:07:03;;;;;;;4.30;3.80;;;;;;;-128.00;-1.00;-1.00;100161;1299;1002990;-30
2022/06/12 00:09:32;;;;;;;8.10;5.40;;;;;;;-128.00;-1.00;-1.00;100200;1299;1003743;-25
2022/06/12 00:12:02;;;;;;;9.00;4.60;;;;;;;-128.00;-1.00;-1.00;100195;1299;1004097;-28
2022/06/12 00:14:31;;;;;;;9.20;4.70;;;;;;;-128.00;-1.00;-1.00;100207;1299;1003714;-24
2022/06/12 00:17:00;;;;;;;5.80;4.70;;;;;;;-128.00;-1.00;-1.00;100159;1299;1005017;-30
2022/06/12 00:19:30;;;;;;;4.20;3.90;;;;;;;-128.00;-1.00;-1.00;100147;1299;1004194;-27
2022/06/12 00:21:59;;;;;;;5.70;4.60;;;;;;;-128.00;-1.00;-1.00;100132;1298;1003839;-28
2022/06/12 00:24:28;;;;;;;7.90;5.30;;;;;;;-128.00;-1.00;-1.00;100111;1299;1003644;-24
2022/06/12 00:26:58;;;;;;;4.30;3.70;;;;;;;-128.00;-1.00;-1.00;100147;1299;1003672;-28
2022/06/12 00:29:29;;;;;;;6.60;4.60;;;;;;;-128.00;-1.00;-1.00;100176;1299;1004650;-24
2022/06/12 00:32:01;;;;;;;7.10;4.30;;;;;;;-128.00;-1.00;-1.00;100152;1299;1004534;-24
2022/06/12 00:34:33;;;;;;;6.60;4.60;;;;;;;-128.00;-1.00;-1.00;100155;1299;1004343;-30
2022/06/12 00:37:04;;;;;;;6.40;4.90;;;;;;;-128.00;-1.00;-1.00;100154;1296;1003252;-28
2022/06/12 00:39:33;;;;;;;10.00;3.80;;;;;;;-128.00;-1.00;-1.00;100170;1299;1004302;-27
2022/06/12 00:42:03;;;;;;;5.50;4.60;;;;;;;-128.00;-1.00;-1.00;100251;1299;1004280;-27
2022/06/12 00:44:38;;;;;;;12.30;4.80;;;;;;;-128.00;-1.00;-1.00;100123;1299;1003452;-24
2022/06/12 00:47:10;;;;;;;6.90;4.40;;;;;;;-128.00;-1.00;-1.00;100087;1299;1003139;-28
2022/06/12 00:49:44;;;;;;;6.20;4.90;;;;;;;-128.00;-1.00;-1.00;100190;1299;1004478;-28
2022/06/12 00:52:20;;;;;;;19.60;6.00;;;;;;;-128.00;-1.00;-1.00;100165;1299;1003540;-28
2022/06/12 00:54:52;;;;;;;12.20;6.00;;;;;;;-128.00;-1.00;-1.00;100189;1299;1004518;-28
2022/06/12 00:57:22;;;;;;;13.00;6.20;;;;;;;-128.00;-1.00;-1.00;100159;1299;1004125;-24
2022/06/12 00:59:53;;;;;;;6.50;4.10;;;;;;;-128.00;-1.00;-1.00;100169;1299;1002844;-26
2022/06/12 01:02:28;;;;;;;4.60;4.20;;;;;;;-128.00;-1.00;-1.00;100144;1299;1003769;-25
2022/06/12 01:07:34;;;;;;;7.30;4.40;;;;;;;-128.00;-1.00;-1.00;100143;1298;1003683;-27
2022/06/12 01:10:06;;;;;;;4.90;4.40;;;;;;;-128.00;-1.00;-1.00;100152;1299;1004410;-27
2022/06/12 01:12:37;;;;;;;7.10;5.20;;;;;;;-128.00;-1.00;-1.00;100150;1299;1003768;-25
2022/06/12 01:15:11;;;;;;;9.00;4.40;;;;;;;-128.00;-1.00;-1.00;100186;1299;1002878;-28
2022/06/12 01:17:40;;;;;;;10.80;5.30;;;;;;;-128.00;-1.00;-1.00;100185;1299;1004607;-28
2022/06/12 01:20:13;;;;;;;5.10;4.50;;;;;;;-128.00;-1.00;-1.00;100129;1299;1003663;-26
2022/06/12 01:22:50;;;;;;;5.90;5.20;;;;;;;-128.00;-1.00;-1.00;100204;1299;1003316;-28
2022/06/12 01:25:26;;;;;;;6.50;3.50;;;;;;;-128.00;-1.00;-1.00;100120;1299;1004098;-24
2022/06/12 01:28:04;;;;;;;4.70;4.10;;;;;;;-128.00;-1.00;-1.00;100076;1299;1003869;-24
2022/06/12 01:30:38;;;;;;;5.90;4.20;;;;;;;-128.00;-1.00;-1.00;100151;1299;1003281;-28
2022/06/12 01:33:19;;;;;;;3.70;3.40;;;;;;;-128.00;-1.00;-1.00;100105;1299;1003522;-27
2022/06/12 01:36:13;;;;;;;7.50;6.70;;;;;;;-128.00;-1.00;-1.00;100150;1299;1003416;-30
2022/06/12 01:38:45;;;;;;;9.20;6.40;;;;;;;-128.00;-1.00;-1.00;100167;1299;1003959;-26
2022/06/12 01:41:24;;;;;;;6.30;5.70;;;;;;;-128.00;-1.00;-1.00;100173;1299;1003163;-26
2022/06/12 01:44:03;;;;;;;6.50;3.90;;;;;;;-128.00;-1.00;-1.00;100142;1299;1003792;-28
2022/06/12 01:46:41;;;;;;;3.70;3.40;;;;;;;-128.00;-1.00;-1.00;100144;1299;1003689;-30
2022/06/12 01:49:21;;;;;;;4.30;3.90;;;;;;;-128.00;-1.00;-1.00;100109;1299;1003289;-30
2022/06/12 01:51:55;;;;;;;5.30;4.60;;;;;;;-128.00;-1.00;-1.00;99994;1299;1004645;-30
2022/06/12 01:54:32;;;;;;;5.80;3.10;;;;;;;-128.00;-1.00;-1.00;100148;1299;1003354;-24
2022/06/12 01:57:07;;;;;;;5.40;4.70;;;;;;;-128.00;-1.00;-1.00;100117;1298;1003805;-24
2022/06/12 01:59:42;;;;;;;8.10;4.40;;;;;;;-128.00;-1.00;-1.00;100122;1299;1003380;-24
2022/06/12 02:02:26;;;;;;;10.90;4.50;;;;;;;-128.00;-1.00;-1.00;100108;1299;1004447;-24
2022/06/12 02:04:59;;;;;;;4.90;4.30;;;;;;;-128.00;-1.00;-1.00;100151;1298;1003501;-28
2022/06/12 02:07:32;;;;;;;4.70;3.10;;;;;;;-128.00;-1.00;-1.00;100140;1299;1004052;-24
2022/06/12 02:10:01;;;;;;;;;;;;;;;-128.00;-1.00;-1.00;100148;1299;1003131;-24
2022/06/12 02:15:05;;;;;;;;;;;;;;;-128.00;-1.00;-1.00;100166;1299;1004241;-28
2022/06/12 02:17:37;;;;;;;7.60;6.90;;;;;;;-128.00;-1.00;-1.00;100160;1299;1003881;-24
2022/06/12 02:20:08;;;;;;;5.10;4.50;;;;;;;-128.00;-1.00;-1.00;100212;1299;1003435;-24
2022/06/12 02:22:39;;;;;;;26.20;4.30;;;;;;;-128.00;-1.00;-1.00;100076;1299;1003414;-25
2022/06/12 02:25:13;;;;;;;8.00;4.60;;;;;;;-128.00;-1.00;-1.00;100119;1299;1003173;-26
2022/06/12 02:27:47;;;;;;;15.20;4.40;;;;;;;-128.00;-1.00;-1.00;100168;1299;1003973;-27
2022/06/12 02:30:22;;;;;;;19.40;7.60;;;;;;;-128.00;-1.00;-1.00;100117;1299;1003247;-28
2022/06/12 02:32:57;;;;;;;3.70;3.40;;;;;;;-128.00;-1.00;-1.00;100172;1299;1003807;-28
2022/06/12 02:35:46;;;;;;;6.10;5.50;;;;;;;-128.00;-1.00;-1.00;100174;1299;1003749;-25
2022/06/12 02:38:20;;;;;;;9.60;5.80;;;;;;;-128.00;-1.00;-1.00;100107;1298;1003082;-25
2022/06/12 02:40:51;;;;;;;6.60;5.80;;;;;;;-128.00;-1.00;-1.00;100195;1299;1004119;-25
2022/06/12 02:43:23;;;;;;;6.10;4.10;;;;;;;-128.00;-1.00;-1.00;100167;1298;1003883;-25
2022/06/12 02:45:56;;;;;;;5.80;5.10;;;;;;;-128.00;-1.00;-1.00;100184;1299;1004454;-28
2022/06/12 02:48:26;;;;;;;11.90;5.10;;;;;;;-128.00;-1.00;-1.00;100131;1299;1003644;-29
2022/06/12 02:51:01;;;;;;;7.40;4.80;;;;;;;-128.00;-1.00;-1.00;100161;1298;1003817;-25
2022/06/12 02:53:32;;;;;;;8.10;5.80;;;;;;;-128.00;-1.00;-1.00;100147;1298;1003303;-25
2022/06/12 02:56:11;;;;;;;10.20;5.50;;;;;;;-128.00;-1.00;-1.00;100132;1299;1004114;-25
2022/06/12 02:58:45;;;;;;;6.40;5.80;;;;;;;-128.00;-1.00;-1.00;100142;1299;1003120;-25
2022/06/12 03:01:16;;;;;;;7.60;6.00;;;;;;;-128.00;-1.00;-1.00;100148;1299;1004246;-28
2022/06/12 03:03:51;;;;;;;16.40;4.70;;;;;;;-128.00;-1.00;-1.00;100186;1297;1003721;-25
2022/06/12 03:06:20;;;;;;;5.90;5.10;;;;;;;-128.00;-1.00;-1.00;100170;1298;1003732;-28
2022/06/12 03:08:50;;;;;;;5.90;3.50;;;;;;;-128.00;-1.00;-1.00;100111;1299;1003491;-24
2022/06/12 03:11:23;;;;;;;5.10;4.70;;;;;;;-128.00;-1.00;-1.00;100120;1299;1002994;-24
2022/06/12 03:13:53;;;;;;;5.00;4.00;;;;;;;-128.00;-1.00;-1.00;100168;1299;1004025;-24
2022/06/12 03:16:25;;;;;;;7.40;5.50;;;;;;;-128.00;-1.00;-1.00;100212;1299;1003907;-29
2022/06/12 03:18:57;;;;;;;6.60;5.40;;;;;;;-128.00;-1.00;-1.00;100152;1299;1003868;-28
2022/06/12 03:21:30;;;;;;;6.30;5.80;;;;;;;-128.00;-1.00;-1.00;100111;1299;1004045;-29
2022/06/12 03:24:16;;;;;;;6.50;5.40;;;;;;;-128.00;-1.00;-1.00;100140;1299;1003355;-29
2022/06/12 03:26:48;;;;;;;7.60;4.90;;;;;;;-128.00;-1.00;-1.00;99973;1299;1003995;-24
2022/06/12 03:29:23;;;;;;;5.70;4.70;;;;;;;-128.00;-1.00;-1.00;100186;1299;1003170;-30
2022/06/12 03:32:00;;;;;;;8.90;5.80;;;;;;;-128.00;-1.00;-1.00;100142;1299;1003918;-26
2022/06/12 03:34:35;;;;;;;5.90;5.40;;;;;;;-128.00;-1.00;-1.00;100130;1299;1002907;-28
2022/06/12 03:37:09;;;;;;;5.00;4.50;;;;;;;-128.00;-1.00;-1.00;100195;1299;1004935;-25
2022/06/12 03:39:43;;;;;;;9.10;5.30;;;;;;;-128.00;-1.00;-1.00;100144;1299;1004092;-24
2022/06/12 03:42:21;;;;;;;8.70;5.00;;;;;;;-128.00;-1.00;-1.00;100125;1299;1003151;-25
2022/06/12 03:44:58;;;;;;;7.90;5.80;;;;;;;-128.00;-1.00;-1.00;100119;1298;1003666;-25
2022/06/12 03:47:31;;;;;;;7.30;5.00;;;;;;;-128.00;-1.00;-1.00;100103;1299;1005147;-26
2022/06/12 03:50:10;;;;;;;6.30;5.70;;;;;;;-128.00;-1.00;-1.00;100183;1299;1003818;-30
2022/06/12 03:52:42;;;;;;;4.70;4.30;;;;;;;-128.00;-1.00;-1.00;99996;1299;1003139;-27
2022/06/12 03:55:16;;;;;;;6.20;5.30;;;;;;;-128.00;-1.00;-1.00;100146;1299;1004473;-29
2022/06/12 03:57:50;;;;;;;10.10;4.60;;;;;;;-128.00;-1.00;-1.00;100168;1299;1003888;-24
2022/06/12 04:00:25;;;;;;;12.60;4.20;;;;;;;-128.00;-1.00;-1.00;100153;1299;1003989;-26
2022/06/12 04:02:59;;;;;;;4.30;3.80;;;;;;;-128.00;-1.00;-1.00;100139;1299;1002884;-30
2022/06/12 04:05:32;;;;;;;5.70;5.00;;;;;;;-128.00;-1.00;-1.00;100111;1299;1003149;-23
2022/06/12 04:08:02;;;;;;;3.50;2.90;;;;;;;-128.00;-1.00;-1.00;100160;1299;1003786;-24
2022/06/12 04:10:33;;;;;;;4.80;4.40;;;;;;;-128.00;-1.00;-1.00;100131;1299;1003352;-24
2022/06/12 04:13:03;;;;;;;5.00;4.50;;;;;;;-128.00;-1.00;-1.00;100031;1299;1003328;-28
2022/06/12 04:15:50;;;;;;;5.10;3.90;;;;;;;-128.00;-1.00;-1.00;99892;1299;1359558;-27
2022/06/12 04:18:19;;;;;;;13.60;4.30;;;;;;;-128.00;-1.00;-1.00;100104;1299;1003685;-24
2022/06/12 04:20:54;;;;;;;5.10;4.60;;;;;;;-128.00;-1.00;-1.00;100116;1299;1004492;-30
2022/06/12 04:23:28;;;;;;;6.20;4.30;;;;;;;-128.00;-1.00;-1.00;100138;1299;1003722;-30
2022/06/12 04:26:00;;;;;;;4.40;3.80;;;;;;;-128.00;-1.00;-1.00;100068;1299;1002978;-30
2022/06/12 04:28:32;;;;;;;5.10;4.10;;;;;;;-128.00;-1.00;-1.00;100192;1299;1003423;-28
2022/06/12 04:31:04;;;;;;;6.50;4.20;;;;;;;-128.00;-1.00;-1.00;100122;1299;1003070;-25
2022/06/12 04:33:36;;;;;;;5.70;4.90;;;;;;;-128.00;-1.00;-1.00;100218;1299;1004001;-25
2022/06/12 04:36:08;;;;;;;4.90;4.20;;;;;;;-128.00;-1.00;-1.00;100177;1299;1004103;-28
2022/06/12 04:38:37;;;;;;;4.80;3.90;;;;;;;-128.00;-1.00;-1.00;100118;1299;1002821;-29
2022/06/12 04:41:07;;;;;;;5.80;4.60;;;;;;;-128.00;-1.00;-1.00;100141;1299;1003808;-25
2022/06/12 04:43:36;;;;;;;5.10;4.00;;;;;;;-128.00;-1.00;-1.00;100097;1299;1003334;-28
2022/06/12 04:46:05;;;;;;;4.80;3.50;;;;;;;-128.00;-1.00;-1.00;100142;1299;1003123;-23
2022/06/12 04:48:37;;;;;;;5.60;3.70;;;;;;;-128.00;-1.00;-1.00;100149;1299;1004693;-27
2022/06/12 04:51:07;;;;;;;6.10;4.60;;;;;;;-128.00;-1.00;-1.00;100165;1299;1003164;-28
2022/06/12 04:53:36;;;;;;;3.90;3.50;;;;;;;-128.00;-1.00;-1.00;100171;1299;1003435;-24
2022/06/12 04:56:05;;;;;;;5.20;4.50;;;;;;;-128.00;-1.00;-1.00;100101;1299;1003716;-24
2022/06/12 04:58:36;;;;;;;4.00;3.60;;;;;;;-128.00;-1.00;-1.00;100194;1299;1003004;-27
2022/06/12 05:01:05;;;;;;;3.50;3.20;;;;;;;-128.00;-1.00;-1.00;100174;1299;1003472;-24
2022/06/12 05:03:35;;;;;;;6.00;4.30;;;;;;;-128.00;-1.00;-1.00;100156;1299;1003920;-27
2022/06/12 05:06:04;;;;;;;6.20;4.10;;;;;;;-128.00;-1.00;-1.00;100135;1299;1003374;-25
2022/06/12 05:08:34;;;;;;;7.70;3.20;;;;;;;-128.00;-1.00;-1.00;100105;1299;1004443;-25
2022/06/12 05:11:03;;;;;;;5.10;3.40;;;;;;;-128.00;-1.00;-1.00;100148;1299;1005029;-29
2022/06/12 05:13:32;;;;;;;3.40;3.10;;;;;;;-128.00;-1.00;-1.00;100181;1299;1003868;-25
2022/06/12 05:16:01;;;;;;;4.00;3.50;;;;;;;-128.00;-1.00;-1.00;100154;1299;1003696;-25
2022/06/12 05:18:31;;;;;;;3.20;2.90;;;;;;;-128.00;-1.00;-1.00;100213;1299;1003275;-25
2022/06/12 05:21:00;;;;;;;5.10;4.40;;;;;;;-128.00;-1.00;-1.00;100189;1299;1004370;-24
2022/06/12 05:23:29;;;;;;;5.00;3.20;;;;;;;-128.00;-1.00;-1.00;100176;1299;1003790;-26
2022/06/12 05:25:58;;;;;;;7.90;3.70;;;;;;;-128.00;-1.00;-1.00;100186;1299;1002983;-30
2022/06/12 05:28:27;;;;;;;4.30;3.50;;;;;;;-128.00;-1.00;-1.00;100184;1299;1003671;-30
2022/06/12 05:30:57;;;;;;;8.10;3.60;;;;;;;-128.00;-1.00;-1.00;100180;1299;1004452;-26
2022/06/12 05:33:26;;;;;;;3.50;3.00;;;;;;;-128.00;-1.00;-1.00;100207;1299;1003468;-24
2022/06/12 05:35:55;;;;;;;8.40;3.20;;;;;;;-128.00;-1.00;-1.00;100190;1299;1003042;-29
2022/06/12 05:38:24;;;;;;;11.80;3.00;;;;;;;-128.00;-1.00;-1.00;100176;1299;1003440;-25
2022/06/12 05:40:53;;;;;;;4.40;3.50;;;;;;;-128.00;-1.00;-1.00;100123;1296;1003742;-25
2022/06/12 05:43:23;;;;;;;4.10;3.20;;;;;;;-128.00;-1.00;-1.00;100200;1299;1004543;-25
2022/06/12 05:45:52;;;;;;;5.80;2.80;;;;;;;-128.00;-1.00;-1.00;100140;1299;1002890;-29
2022/06/12 05:48:22;;;;;;;3.40;2.60;;;;;;;-128.00;-1.00;-1.00;100165;1299;1004374;-29
2022/06/12 05:50:53;;;;;;;4.80;2.60;;;;;;;-128.00;-1.00;-1.00;100203;1299;1003475;-29
2022/06/12 05:53:24;;;;;;;4.90;2.50;;;;;;;-128.00;-1.00;-1.00;100225;1299;1003870;-25
2022/06/12 05:55:53;;;;;;;5.20;2.40;;;;;;;-128.00;-1.00;-1.00;100146;1299;1003935;-24
2022/06/12 05:58:24;;;;;;;7.20;2.60;;;;;;;-128.00;-1.00;-1.00;100183;1299;1003300;-26
2022/06/12 06:00:53;;;;;;;3.80;3.00;;;;;;;-128.00;-1.00;-1.00;100142;1298;1003290;-26
2022/06/12 06:03:23;;;;;;;3.10;2.00;;;;;;;-128.00;-1.00;-1.00;100161;1299;1004470;-30
2022/06/12 06:05:52;;;;;;;2.90;1.90;;;;;;;-128.00;-1.00;-1.00;100110;1299;1003643;-27
2022/06/12 06:08:21;;;;;;;5.70;2.80;;;;;;;-128.00;-1.00;-1.00;100173;1299;1003538;-26
2022/06/12 06:10:50;;;;;;;2.00;1.90;;;;;;;-128.00;-1.00;-1.00;100176;1299;1003494;-24
2022/06/12 06:13:20;;;;;;;6.00;2.40;;;;;;;-128.00;-1.00;-1.00;100229;1299;1003689;-26
2022/06/12 06:15:50;;;;;;;4.40;3.10;;;;;;;-128.00;-1.00;-1.00;100094;1299;1002760;-29
2022/06/12 06:18:20;;;;;;;2.40;1.80;;;;;;;-128.00;-1.00;-1.00;100135;1298;1002921;-25
2022/06/12 06:20:49;;;;;;;3.30;2.40;;;;;;;-128.00;-1.00;-1.00;100219;1298;1003089;-28
2022/06/12 06:23:18;;;;;;;5.00;2.50;;;;;;;-128.00;-1.00;-1.00;100151;1299;1004360;-28
2022/06/12 06:25:47;;;;;;;6.30;2.50;;;;;;;-128.00;-1.00;-1.00;100116;1299;1003634;-25
2022/06/12 06:28:16;;;;;;;2.50;2.30;;;;;;;-128.00;-1.00;-1.00;100158;1299;1004087;-25
2022/06/12 06:30:46;;;;;;;5.70;2.10;;;;;;;-128.00;-1.00;-1.00;100126;1298;1003510;-29
2022/06/12 06:33:15;;;;;;;5.90;2.30;;;;;;;-128.00;-1.00;-1.00;100131;1298;1003381;-29
2022/06/12 06:35:44;;;;;;;10.00;2.20;;;;;;;-128.00;-1.00;-1.00;100134;1299;1003474;-28
2022/06/12 06:38:13;;;;;;;2.20;1.80;;;;;;;-128.00;-1.00;-1.00;100137;1299;1003783;-26
2022/06/12 06:40:42;;;;;;;3.10;2.50;;;;;;;-128.00;-1.00;-1.00;99989;1299;1003326;-29
2022/06/12 06:43:12;;;;;;;2.80;2.30;;;;;;;-128.00;-1.00;-1.00;100143;1298;1004285;-25
2022/06/12 06:48:13;;;;;;;5.50;1.90;;;;;;;-128.00;-1.00;-1.00;100124;1298;1003836;-25
2022/06/12 06:50:43;;;;;;;4.40;2.60;;;;;;;-128.00;-1.00;-1.00;100164;1299;1003053;-25
2022/06/12 06:53:13;;;;;;;3.30;2.10;;;;;;;-128.00;-1.00;-1.00;100173;1299;1004650;-25
2022/06/12 06:55:42;;;;;;;9.70;2.00;;;;;;;-128.00;-1.00;-1.00;100164;1298;1002944;-28
2022/06/12 06:58:14;;;;;;;3.10;2.00;;;;;;;-128.00;-1.00;-1.00;100175;1299;1003691;-25
2022/06/12 07:00:44;;;;;;;1.80;1.70;;;;;;;-128.00;-1.00;-1.00;100173;1299;1003182;-25
2022/06/12 07:03:14;;;;;;;4.00;1.80;;;;;;;-128.00;-1.00;-1.00;100164;1299;1003905;-25
2022/06/12 07:05:44;;;;;;;3.00;2.50;;;;;;;-128.00;-1.00;-1.00;100152;1299;1004017;-25
2022/06/12 07:08:13;;;;;;;5.30;2.00;;;;;;;-128.00;-1.00;-1.00;100018;1299;1003964;-29
2022/06/12 07:10:43;;;;;;;1.70;1.60;;;;;;;-128.00;-1.00;-1.00;100168;1299;1003767;-25
2022/06/12 07:13:12;;;;;;;1.70;1.60;;;;;;;-128.00;-1.00;-1.00;100164;1299;1003183;-29
2022/06/12 07:15:41;;;;;;;3.10;2.00;;;;;;;-128.00;-1.00;-1.00;100150;1299;1003516;-29
2022/06/12 07:18:11;;;;;;;2.80;1.80;;;;;;;-128.00;-1.00;-1.00;100222;1299;1004188;-29
2022/06/12 07:20:46;;;;;;;1.60;1.40;;;;;;;-128.00;-1.00;-1.00;100159;1299;1003993;-29
2022/06/12 07:23:17;;;;;;;2.40;1.50;;;;;;;-128.00;-1.00;-1.00;100134;1299;1003044;-25
2022/06/12 07:25:50;;;;;;;12.00;2.30;;;;;;;-128.00;-1.00;-1.00;100153;1299;1003259;-25
2022/06/12 07:28:23;;;;;;;2.30;1.80;;;;;;;-128.00;-1.00;-1.00;100049;1299;1003666;-25
2022/06/12 07:30:52;;;;;;;3.50;1.70;;;;;;;-128.00;-1.00;-1.00;100162;1299;1004359;-30
2022/06/12 07:33:21;;;;;;;2.10;1.80;;;;;;;-128.00;-1.00;-1.00;100163;1298;1003107;-28
2022/06/12 07:35:51;;;;;;;2.90;2.40;;;;;;;-128.00;-1.00;-1.00;100149;1299;1003444;-25
2022/06/12 07:38:21;;;;;;;2.40;1.90;;;;;;;-128.00;-1.00;-1.00;100143;1298;1003119;-25
2022/06/12 07:40:54;;;;;;;3.40;2.30;;;;;;;-128.00;-1.00;-1.00;100120;1299;1003411;-24
2022/06/12 07:43:23;;;;;;;2.70;2.10;;;;;;;-128.00;-1.00;-1.00;100164;1299;1004507;-28
2022/06/12 07:45:53;;;;;;;5.20;2.20;;;;;;;-128.00;-1.00;-1.00;100146;1298;1003702;-24
2022/06/12 07:48:22;;;;;;;2.80;1.50;;;;;;;-128.00;-1.00;-1.00;100169;1299;1004199;-28
2022/06/12 07:50:52;;;;;;;3.40;1.90;;;;;;;-128.00;-1.00;-1.00;100165;1299;1003837;-24
2022/06/12 07:53:22;;;;;;;4.50;1.80;;;;;;;-128.00;-1.00;-1.00;100057;1299;1003444;-24
2022/06/12 07:55:51;;;;;;;3.50;2.20;;;;;;;-128.00;-1.00;-1.00;100104;1299;1003834;-24
2022/06/12 07:58:23;;;;;;;2.10;1.50;;;;;;;-128.00;-1.00;-1.00;100144;1299;1003727;-24
2022/06/12 08:00:53;;;;;;;3.40;1.50;;;;;;;-128.00;-1.00;-1.00;100187;1299;1004220;-24
2022/06/12 08:03:22;;;;;;;2.70;1.60;;;;;;;-128.00;-1.00;-1.00;100123;1299;1002806;-28
2022/06/12 08:05:51;;;;;;;1.10;1.00;;;;;;;-128.00;-1.00;-1.00;100181;1299;1003063;-28
2022/06/12 08:08:20;;;;;;;3.20;1.40;;;;;;;-128.00;-1.00;-1.00;100178;1299;1003602;-25
2022/06/12 08:10:50;;;;;;;2.00;1.30;;;;;;;-128.00;-1.00;-1.00;100161;1299;1003979;-25
2022/06/12 08:13:19;;;;;;;1.90;1.70;;;;;;;-128.00;-1.00;-1.00;100162;1298;1003122;-28
2022/06/12 08:15:48;;;;;;;4.90;1.70;;;;;;;-128.00;-1.00;-1.00;100137;1299;1003763;-25
2022/06/12 08:18:18;;;;;;;4.00;1.70;;;;;;;-128.00;-1.00;-1.00;100214;1299;1003646;-28
2022/06/12 08:20:51;;;;;;;1.20;1.10;;;;;;;-128.00;-1.00;-1.00;100167;1298;1004176;-28
2022/06/12 08:25:55;;;;;;;1.70;1.30;;;;;;;-128.00;-1.00;-1.00;100178;1299;1003959;-25
2022/06/12 08:28:25;;;;;;;4.80;1.50;;;;;;;-128.00;-1.00;-1.00;100129;1299;1003243;-28
2022/06/12 08:30:54;;;;;;;2.10;1.40;;;;;;;-128.00;-1.00;-1.00;100157;1299;1003048;-25
2022/06/12 08:33:24;;;;;;;2.70;1.30;;;;;;;-128.00;-1.00;-1.00;100174;1299;1004390;-25
2022/06/12 08:35:53;;;;;;;1.80;1.20;;;;;;;-128.00;-1.00;-1.00;100165;1299;1004225;-25
2022/06/12 08:38:22;;;;;;;2.80;1.20;;;;;;;-128.00;-1.00;-1.00;100169;1299;1003844;-25
2022/06/12 08:40:58;;;;;;;3.10;1.70;;;;;;;-128.00;-1.00;-1.00;100169;1299;1003414;-25
2022/06/12 08:43:27;;;;;;;2.70;1.60;;;;;;;-128.00;-1.00;-1.00;100170;1299;1004048;-28
2022/06/12 08:45:59;;;;;;;2.10;1.40;;;;;;;-128.00;-1.00;-1.00;100178;1299;1003292;-27
2022/06/12 08:48:33;;;;;;;2.80;1.30;;;;;;;-128.00;-1.00;-1.00;100206;1299;1004393;-24
2022/06/12 08:51:06;;;;;;;2.20;1.30;;;;;;;-128.00;-1.00;-1.00;100164;1299;1003278;-27
2022/06/12 08:53:41;;;;;;;6.20;1.50;;;;;;;-128.00;-1.00;-1.00;100145;1299;1003566;-31
2022/06/12 08:56:16;;;;;;;1.50;1.40;;;;;;;-128.00;-1.00;-1.00;100127;1296;1003060;-30
2022/06/12 08:58:49;;;;;;;2.60;1.70;;;;;;;-128.00;-1.00;-1.00;100082;1299;1003385;-30
2022/06/12 09:01:19;;;;;;;4.30;1.20;;;;;;;-128.00;-1.00;-1.00;100104;1299;1003396;-26
2022/06/12 09:03:50;;;;;;;1.90;1.50;;;;;;;-128.00;-1.00;-1.00;100080;1299;1005021;-27
2022/06/12 09:06:31;;;;;;;1.20;1.00;;;;;;;-128.00;-1.00;-1.00;100165;1299;1002760;-24
2022/06/12 09:09:05;;;;;;;2.20;1.40;;;;;;;-128.00;-1.00;-1.00;100153;1299;1004491;-24
2022/06/12 09:11:39;;;;;;;1.60;1.20;;;;;;;-128.00;-1.00;-1.00;100103;1299;1005012;-24
2022/06/12 09:14:14;;;;;;;2.60;1.10;;;;;;;-128.00;-1.00;-1.00;100269;1299;1003281;-24
2022/06/12 09:16:50;;;;;;;1.70;1.40;;;;;;;-128.00;-1.00;-1.00;100278;1299;1003958;-28
2022/06/12 09:19:21;;;;;;;1.40;1.20;;;;;;;-128.00;-1.00;-1.00;100115;1299;1003797;-28
2022/06/12 09:21:53;;;;;;;2.60;1.30;;;;;;;-128.00;-1.00;-1.00;100191;1299;1002838;-24
2022/06/12 09:24:29;;;;;;;1.80;1.20;;;;;;;-128.00;-1.00;-1.00;100176;1299;1002943;-28
2022/06/12 09:27:10;;;;;;;1.60;1.40;;;;;;;-128.00;-1.00;-1.00;100264;1299;1003460;-24
2022/06/12 09:30:08;;;;;;;4.80;1.40;;;;;;;-128.00;-1.00;-1.00;100219;1299;1004021;-28
2022/06/12 09:32:51;;;;;;;2.70;1.60;;;;;;;-128.00;-1.00;-1.00;100208;1299;1003455;-28
2022/06/12 09:35:38;;;;;;;3.30;1.10;;;;;;;-128.00;-1.00;-1.00;100213;1299;1002974;-24
2022/06/12 09:38:20;;;;;;;2.70;2.00;;;;;;;-128.00;-1.00;-1.00;100221;1299;1003286;-24
2022/06/12 09:41:20;;;;;;;1.40;0.90;;;;;;;-128.00;-1.00;-1.00;100074;1299;1003128;-28
2022/06/12 09:44:05;;;;;;;2.70;1.20;;;;;;;-128.00;-1.00;-1.00;100237;1299;1003220;-28
2022/06/12 09:46:50;;;;;;;1.40;1.00;;;;;;;-128.00;-1.00;-1.00;100235;1299;1002868;-24
2022/06/12 09:49:32;;;;;;;5.30;1.10;;;;;;;-128.00;-1.00;-1.00;100230;1299;1004794;-24
2022/06/12 09:52:13;;;;;;;1.60;1.40;;;;;;;-128.00;-1.00;-1.00;100160;1299;1003388;-24
2022/06/12 09:55:05;;;;;;;1.60;1.00;;;;;;;-128.00;-1.00;-1.00;100241;1299;1004634;-24
2022/06/12 09:57:56;;;;;;;4.70;1.40;;;;;;;-128.00;-1.00;-1.00;100215;1299;1003877;-24
2022/06/12 10:00:45;;;;;;;4.20;0.90;;;;;;;-128.00;-1.00;-1.00;100334;1296;1002909;-24
2022/06/12 10:03:29;;;;;;;1.50;0.90;;;;;;;-128.00;-1.00;-1.00;100271;1299;1002960;-24
2022/06/12 10:08:56;;;;;;;1.80;1.00;;;;;;;-128.00;-1.00;-1.00;100302;1299;1002512;-28
2022/06/12 10:11:36;;;;;;;2.50;1.00;;;;;;;-128.00;-1.00;-1.00;100260;1299;1003099;-28
2022/06/12 10:14:17;;;;;;;1.60;1.00;;;;;;;-128.00;-1.00;-1.00;100424;1299;1003253;-24
2022/06/12 10:16:59;;;;;;;3.10;0.80;;;;;;;-128.00;-1.00;-1.00;100161;1299;1003067;-24
2022/06/12 10:19:41;;;;;;;1.10;0.80;;;;;;;-128.00;-1.00;-1.00;100240;1299;1003826;-28
2022/06/12 10:22:23;;;;;;;1.30;0.90;;;;;;;-128.00;-1.00;-1.00;100230;1299;1004055;-28
2022/06/12 10:25:01;;;;;;;3.30;1.00;;;;;;;-128.00;-1.00;-1.00;100234;1299;1003195;-24
2022/06/12 10:27:42;;;;;;;1.80;1.00;;;;;;;-128.00;-1.00;-1.00;100271;1299;1003190;-25
2022/06/12 10:30:23;;;;;;;26.50;10.70;;;;;;;-128.00;-1.00;-1.00;100262;1299;1002929;-28
2022/06/12 10:33:08;;;;;;;1.70;1.30;;;;;;;-128.00;-1.00;-1.00;100254;1299;1003277;-25
2022/06/12 10:35:49;;;;;;;2.10;0.70;;;;;;;-128.00;-1.00;-1.00;100252;1299;1002906;-24
2022/06/12 10:38:29;;;;;;;2.70;1.10;;;;;;;-128.00;-1.00;-1.00;100197;1298;1002819;-24
2022/06/12 10:41:20;;;;;;;15.70;7.20;;;;;;;-128.00;-1.00;-1.00;100196;1299;1002880;-24
2022/06/12 10:43:57;;;;;;;5.20;3.30;;;;;;;-128.00;-1.00;-1.00;100300;1298;1002826;-24
2022/06/12 10:46:35;;;;;;;1.50;0.90;;;;;;;-128.00;-1.00;-1.00;100246;1299;1003409;-28
2022/06/12 10:49:17;;;;;;;22.00;10.20;;;;;;;-128.00;-1.00;-1.00;100201;1299;1003156;-28
2022/06/12 10:52:04;;;;;;;11.00;8.30;;;;;;;-128.00;-1.00;-1.00;100216;1299;1003189;-28
2022/06/12 10:54:41;;;;;;;2.20;1.10;;;;;;;-128.00;-1.00;-1.00;100230;1298;1002601;-24
2022/06/12 10:57:31;;;;;;;1.30;1.10;;;;;;;-128.00;-1.00;-1.00;100243;1299;1002946;-28
2022/06/12 11:00:11;;;;;;;3.40;2.80;;;;;;;-128.00;-1.00;-1.00;100198;1298;1003503;-28
2022/06/12 11:02:53;;;;;;;2.50;0.70;;;;;;;-128.00;-1.00;-1.00;100201;1299;1002854;-24
2022/06/12 11:05:35;;;;;;;0.90;0.80;;;;;;;-128.00;-1.00;-1.00;100295;1299;1003063;-24
2022/06/12 11:08:20;;;;;;;1.50;1.30;;;;;;;-128.00;-1.00;-1.00;100259;1299;1002896;-35
2022/06/12 11:11:07;;;;;;;1.00;0.50;;;;;;;-128.00;-1.00;-1.00;100142;1299;1002865;-28
2022/06/12 11:13:45;;;;;;;0.90;0.80;;;;;;;-128.00;-1.00;-1.00;100175;1299;1003029;-28
2022/06/12 11:16:38;;;;;;;0.90;0.70;;;;;;;-128.00;-1.00;-1.00;100230;1299;1003735;-24
2022/06/12 11:19:26;;;;;;;5.30;1.40;;;;;;;-128.00;-1.00;-1.00;100210;1299;1003002;-28
2022/06/12 11:22:13;;;;;;;1.10;0.90;;;;;;;-128.00;-1.00;-1.00;100228;1298;1004362;-27
2022/06/12 11:24:52;;;;;;;1.20;0.80;;;;;;;-128.00;-1.00;-1.00;100286;1299;1003283;-28
2022/06/12 11:27:36;;;;;;;1.00;0.60;;;;;;;-128.00;-1.00;-1.00;100230;1299;1005455;-24
2022/06/12 11:30:21;;;;;;;1.50;0.80;;;;;;;-128.00;-1.00;-1.00;100242;1298;1003261;-24
2022/06/12 11:33:07;;;;;;;1.00;0.60;;;;;;;-128.00;-1.00;-1.00;100235;1298;1003164;-24
2022/06/12 11:35:49;;;;;;;3.10;0.80;;;;;;;-128.00;-1.00;-1.00;100229;1299;1004647;-28
2022/06/12 11:38:31;;;;;;;2.50;0.80;;;;;;;-128.00;-1.00;-1.00;100245;1298;1002983;-24
2022/06/12 11:41:13;;;;;;;3.30;1.60;;;;;;;-128.00;-1.00;-1.00;100229;1299;1002945;-28
2022/06/12 11:43:55;;;;;;;1.60;0.90;;;;;;;-128.00;-1.00;-1.00;100199;1298;1004035;-24
2022/06/12 11:46:36;;;;;;;;;;;;;;;-128.00;-1.00;-1.00;100247;1298;1002871;-24
2022/06/12 11:49:22;;;;;;;2.20;0.60;;;;;;;-128.00;-1.00;-1.00;100254;1298;1002957;-24
2022/06/12 11:52:04;;;;;;;4.70;1.10;;;;;;;-128.00;-1.00;-1.00;100306;1299;1002602;-24
2022/06/12 11:54:45;;;;;;;0.80;0.70;;;;;;;-128.00;-1.00;-1.00;100239;1299;1004304;-24
2022/06/12 11:57:24;;;;;;;1.00;0.80;;;;;;;-128.00;-1.00;-1.00;100214;1299;1002738;-28
2022/06/12 12:00:07;;;;;;;0.70;0.60;;;;;;;-128.00;-1.00;-1.00;100218;1299;1003934;-28
2022/06/12 12:02:50;;;;;;;2.00;0.90;;;;;;;-128.00;-1.00;-1.00;100150;1299;1003416;-28